Observations for Trim Market St
| Time | AQI | Temp °C | Hum % | Pres Pa | CO μg/m³ | H₂S μg/m³ | NO μg/m³ | NO₂ μg/m³ | O₃ μg/m³ | SO₂ μg/m³ | PM1 μg/m³ | PM2.5 μg/m³ | PM10 μg/m³ |
|---|---|---|---|---|---|---|---|---|---|---|---|---|---|
| Friday 14 August 2026 | |||||||||||||
| 10:55 | 2 | 38.2 | 28 | 66,794 | 0 | 0 | 0 | 3.86 | 69.1 | 0 | 0.71 | 3.37 | 3.71 |
| 10:54 | 2 | 38.1 | 30 | 66,770 | 0 | 0 | 0 | 1.81 | 80.59 | 0.7 | 0 | 2.77 | 3.04 |
| 10:53 | 2 | 38 | 29 | 66,768 | 0 | 0 | 0 | 7.25 | 83.14 | 0 | 0 | 2.8 | 3.09 |
| 10:52 | 2 | 37.9 | 28 | 66,735 | 0 | 0 | 0 | 5.35 | 79.88 | 0 | 0 | 2.83 | 3.11 |
| 10:51 | 2 | 37.8 | 29 | 66,718 | 0 | 0 | 0 | 6.96 | 59.87 | 0 | 0 | 2.81 | 3.09 |
| 10:50 | 2 | 37.7 | 30 | 66,704 | 0 | 0 | 0 | 7.79 | 80.49 | 0 | 0 | 2.79 | 3.07 |
| 10:48 | 2 | 37.4 | 30 | 66,684 | 0.24 | 0 | 0 | 8.23 | 82.28 | 0 | 0 | 3.32 | 3.66 |
| 10:44 | 2 | 36.9 | 32 | 66,631 | 0 | 0 | 0.05 | 0 | 63.43 | 0 | 0 | 3.24 | 3.56 |
| 10:42 | 2 | 36.6 | 31 | 66,604 | 0 | 0 | 0.1 | 3.57 | 70.33 | 0 | 0 | 2.72 | 2.99 |
| 10:41 | 2 | 36.4 | 32 | 66,566 | 0 | 0 | 0.12 | 7.31 | 66.46 | 0 | 0 | 3.24 | 3.57 |
| 10:40 | 2 | 36.3 | 31 | 66,554 | 0.12 | 0 | 0.13 | 1.89 | 66.78 | 0 | 0 | 2.72 | 2.99 |
| 10:39 | 2 | 36.3 | 31 | 66,543 | 0.61 | 0 | 0.14 | 3.58 | 42.31 | 0 | 0 | 2.73 | 3 |
| 10:27 | 2 | 34.8 | 36 | 66,351 | 0.53 | 0 | 0.29 | 6.79 | 50.18 | 0 | 0.71 | 4.13 | 4.21 |
| 10:26 | 2 | 34.5 | 36 | 66,321 | 0.71 | 0 | 0.32 | 6.91 | 25.19 | 0 | 0.71 | 3.6 | 3.96 |
| 10:25 | 2 | 34.3 | 36 | 66,313 | 0.43 | 0 | 0.35 | 1.08 | 32.05 | 0 | 0.71 | 3.59 | 3.95 |
| 10:24 | 2 | 34.1 | 37 | 66,280 | 0.43 | 0 | 0.37 | 6.66 | 42.75 | 0 | 0 | 3.02 | 3.33 |
| 10:23 | 2 | 33.8 | 37 | 66,196 | 0.44 | 0 | 0.38 | 8.38 | 26.06 | 0 | 0 | 3.01 | 3.32 |
| 10:22 | 2 | 33.6 | 38 | 66,153 | 0.61 | 0 | 1.06 | 2.35 | 0 | 0 | 0 | 2.95 | 3.25 |
| 10:21 | 2 | 33.4 | 39 | 66,072 | 0.51 | 0 | 1.1 | 9.46 | 48.95 | 0 | 0 | 3.44 | 3.78 |
| 10:20 | 2 | 33.1 | 40 | 65,995 | 0.57 | 0 | 1.15 | 7.8 | 12.72 | 0 | 0.71 | 3.43 | 3.77 |